Time;durP1;ratioP1;P1;durP2;ratioP2;P2;SDS_P1;SDS_P2;PMS_P1;PMS_P2;Temp;Humidity;BMP_temperature;BMP_pressure;BME280_temperature;BME280_humidity;BME280_pressure;Samples;Min_cycle;Max_cycle;Signal;HPM_P1;HPM_P2
2022/07/04 00:00:07;;;;;;;3.30;1.33;;;;;;;;;;5033676;28;20539;-58
2022/07/04 00:02:33;;;;;;;2.38;1.40;;;;;;;;;;5030301;28;20024;-58
2022/07/04 00:04:59;;;;;;;2.75;1.33;;;;;;;;;;5029267;28;20029;-58
2022/07/04 00:07:25;;;;;;;3.40;1.50;;;;;;;;;;5029879;28;20116;-58
2022/07/04 00:09:51;;;;;;;4.72;1.58;;;;;;;;;;5029983;28;20404;-57
2022/07/04 00:12:17;;;;;;;1.98;1.50;;;;;;;;;;5031244;28;20804;-58
2022/07/04 00:14:44;;;;;;;2.15;1.50;;;;;;;;;;5025612;28;20370;-58
2022/07/04 00:17:10;;;;;;;5.63;1.92;;;;;;;;;;5031393;28;20088;-57
2022/07/04 00:19:36;;;;;;;3.08;1.45;;;;;;;;;;5032117;28;20089;-58
2022/07/04 00:22:02;;;;;;;5.43;1.67;;;;;;;;;;5031590;28;20541;-57
2022/07/04 00:24:28;;;;;;;2.88;1.42;;;;;;;;;;5030187;28;20104;-58
2022/07/04 00:26:54;;;;;;;3.53;1.65;;;;;;;;;;5031662;28;20069;-58
2022/07/04 00:29:20;;;;;;;1.70;1.27;;;;;;;;;;5030880;28;20038;-58
2022/07/04 00:31:45;;;;;;;4.35;1.60;;;;;;;;;;5030917;28;20599;-58
2022/07/04 00:34:11;;;;;;;4.05;1.50;;;;;;;;;;5031815;28;20037;-58
2022/07/04 00:36:37;;;;;;;5.35;1.60;;;;;;;;;;5030843;28;20061;-58
2022/07/04 00:39:04;;;;;;;4.00;1.67;;;;;;;;;;5030239;28;20124;-58
2022/07/04 00:41:30;;;;;;;3.85;1.73;;;;;;;;;;5032717;28;20026;-58
2022/07/04 00:44:04;;;;;;;4.15;1.65;;;;;;;;;;5029052;28;20025;-58
2022/07/04 00:46:30;;;;;;;5.07;1.60;;;;;;;;;;5031184;28;20053;-58
2022/07/04 00:48:56;;;;;;;2.35;1.52;;;;;;;;;;5031241;28;20193;-58
2022/07/04 00:51:23;;;;;;;2.50;1.73;;;;;;;;;;5028857;28;20026;-57
2022/07/04 00:53:49;;;;;;;2.25;1.50;;;;;;;;;;5031454;28;20036;-58
2022/07/04 00:56:16;;;;;;;1.90;1.52;;;;;;;;;;5031476;28;20057;-57
2022/07/04 00:58:42;;;;;;;3.60;1.33;;;;;;;;;;5027896;28;20052;-57
2022/07/04 01:01:08;;;;;;;3.45;1.52;;;;;;;;;;5030622;28;20129;-56
2022/07/04 01:03:34;;;;;;;2.65;1.50;;;;;;;;;;5030434;28;20056;-54
2022/07/04 01:06:00;;;;;;;7.28;1.83;;;;;;;;;;5028763;28;20029;-54
2022/07/04 01:08:26;;;;;;;2.20;1.67;;;;;;;;;;5029539;28;20497;-56
2022/07/04 01:10:52;;;;;;;2.42;1.50;;;;;;;;;;5029645;28;20039;-54
2022/07/04 01:13:22;;;;;;;2.25;2.00;;;;;;;;;;5030534;28;20105;-56
2022/07/04 01:15:49;;;;;;;4.18;2.08;;;;;;;;;;5028729;28;20558;-56
2022/07/04 01:18:15;;;;;;;3.80;2.50;;;;;;;;;;5031038;28;20026;-55
2022/07/04 01:20:41;;;;;;;4.28;2.20;;;;;;;;;;5026361;28;20040;-56
2022/07/04 01:23:07;;;;;;;2.75;2.22;;;;;;;;;;5031884;28;20083;-54
2022/07/04 01:25:33;;;;;;;3.13;2.30;;;;;;;;;;5029970;28;20029;-57
2022/07/04 01:28:00;;;;;;;4.30;2.42;;;;;;;;;;5028790;28;20504;-56
2022/07/04 01:30:26;;;;;;;3.00;1.95;;;;;;;;;;5022578;28;20474;-56
2022/07/04 01:32:53;;;;;;;6.00;2.50;;;;;;;;;;5026332;28;20079;-55
2022/07/04 01:35:19;;;;;;;3.22;2.50;;;;;;;;;;5029368;28;20029;-56
2022/07/04 01:37:45;;;;;;;3.15;2.50;;;;;;;;;;5030470;28;20124;-55
2022/07/04 01:40:12;;;;;;;4.35;3.05;;;;;;;;;;5029524;28;20029;-56
2022/07/04 01:42:38;;;;;;;5.53;3.15;;;;;;;;;;5030878;28;20035;-56
2022/07/04 01:45:05;;;;;;;4.13;3.70;;;;;;;;;;5030563;28;20025;-56
2022/07/04 01:47:31;;;;;;;4.93;3.08;;;;;;;;;;5028843;28;20040;-56
2022/07/04 01:49:56;;;;;;;9.90;4.20;;;;;;;;;;5029331;28;20504;-52
2022/07/04 01:52:23;;;;;;;5.35;3.85;;;;;;;;;;5029524;28;20025;-55
2022/07/04 01:54:48;;;;;;;5.65;3.35;;;;;;;;;;5029895;28;20025;-56
2022/07/04 01:57:14;;;;;;;7.30;4.38;;;;;;;;;;5030857;28;20651;-56
2022/07/04 02:02:25;;;;;;;5.20;3.65;;;;;;;;;;5028059;28;20584;-56
2022/07/04 02:04:51;;;;;;;5.25;3.80;;;;;;;;;;5028750;28;20084;-55
2022/07/04 02:07:17;;;;;;;5.95;3.30;;;;;;;;;;5030818;28;20037;-55
2022/07/04 02:09:43;;;;;;;4.38;3.95;;;;;;;;;;5011745;28;20481;-56
2022/07/04 02:14:54;;;;;;;9.68;4.47;;;;;;;;;;5029838;28;20048;-56
2022/07/04 02:17:21;;;;;;;6.13;4.43;;;;;;;;;;5029292;28;20835;-54
2022/07/04 02:19:47;;;;;;;7.20;4.50;;;;;;;;;;5027059;28;20040;-55
2022/07/04 02:22:13;;;;;;;7.13;4.05;;;;;;;;;;5023108;28;20473;-56
2022/07/04 02:24:39;;;;;;;5.50;4.50;;;;;;;;;;5028196;28;20025;-57
2022/07/04 02:27:06;;;;;;;8.00;4.78;;;;;;;;;;5028668;28;20041;-56
2022/07/04 02:29:32;;;;;;;5.85;4.30;;;;;;;;;;5027415;28;20480;-56
2022/07/04 02:31:58;;;;;;;8.68;5.45;;;;;;;;;;5029658;28;20030;-55
2022/07/04 02:34:24;;;;;;;8.02;4.93;;;;;;;;;;5028035;28;20128;-55
2022/07/04 02:36:50;;;;;;;5.72;5.10;;;;;;;;;;5028703;28;20477;-56
2022/07/04 02:39:16;;;;;;;7.25;5.05;;;;;;;;;;5029039;28;20032;-54
2022/07/04 02:41:42;;;;;;;8.07;5.40;;;;;;;;;;5028957;28;20024;-55
2022/07/04 02:44:08;;;;;;;9.90;5.93;;;;;;;;;;5032505;28;20033;-54
2022/07/04 02:46:34;;;;;;;8.48;5.53;;;;;;;;;;5029623;28;20025;-55
2022/07/04 02:49:00;;;;;;;5.13;4.63;;;;;;;;;;5028782;28;20088;-55
2022/07/04 02:51:26;;;;;;;8.25;5.90;;;;;;;;;;5027116;28;20496;-55
2022/07/04 02:53:53;;;;;;;6.78;5.43;;;;;;;;;;5028703;28;20033;-56
2022/07/04 02:56:19;;;;;;;5.97;4.93;;;;;;;;;;5027472;28;20129;-56
2022/07/04 02:58:45;;;;;;;7.38;5.45;;;;;;;;;;5027544;28;20033;-57
2022/07/04 03:01:12;;;;;;;5.78;5.18;;;;;;;;;;5032192;28;20088;-54
2022/07/04 03:03:38;;;;;;;9.23;5.13;;;;;;;;;;5031439;28;20037;-57
2022/07/04 03:06:04;;;;;;;7.72;5.88;;;;;;;;;;5032230;28;20025;-56
2022/07/04 03:08:30;;;;;;;5.82;5.10;;;;;;;;;;5031830;28;20552;-56
2022/07/04 03:10:56;;;;;;;9.25;5.57;;;;;;;;;;5034208;28;20100;-56
2022/07/04 03:13:22;;;;;;;6.53;5.72;;;;;;;;;;5032217;28;20413;-55
2022/07/04 03:15:48;;;;;;;6.20;5.18;;;;;;;;;;5032870;28;20037;-60
2022/07/04 03:18:14;;;;;;;6.90;5.82;;;;;;;;;;5032312;28;20381;-54
2022/07/04 03:20:40;;;;;;;6.97;6.20;;;;;;;;;;5030407;28;20026;-54
2022/07/04 03:23:06;;;;;;;8.77;5.50;;;;;;;;;;5032278;28;20233;-56
2022/07/04 03:25:32;;;;;;;7.80;6.18;;;;;;;;;;5032897;28;20036;-56
2022/07/04 03:27:58;;;;;;;8.48;6.18;;;;;;;;;;5031506;28;20603;-54
2022/07/04 03:30:24;;;;;;;6.20;5.60;;;;;;;;;;5030277;28;20036;-56
2022/07/04 03:32:50;;;;;;;9.10;6.05;;;;;;;;;;5033105;28;20458;-56
2022/07/04 03:35:16;;;;;;;6.15;5.45;;;;;;;;;;5043616;28;20056;-56
2022/07/04 03:37:42;;;;;;;6.07;5.03;;;;;;;;;;5036284;28;20140;-56
2022/07/04 03:40:08;;;;;;;7.95;5.82;;;;;;;;;;5031919;28;20033;-57
2022/07/04 03:42:34;;;;;;;5.95;5.32;;;;;;;;;;5032485;28;20033;-56
2022/07/04 03:45:00;;;;;;;7.13;6.30;;;;;;;;;;5031514;28;20029;-55
2022/07/04 03:47:26;;;;;;;8.95;5.68;;;;;;;;;;5030992;28;20025;-57
2022/07/04 03:49:52;;;;;;;7.43;5.65;;;;;;;;;;5031519;28;20504;-56
2022/07/04 03:52:18;;;;;;;5.75;5.15;;;;;;;;;;5033399;28;20025;-56
2022/07/04 03:54:44;;;;;;;7.18;5.72;;;;;;;;;;5033558;28;20108;-56
2022/07/04 03:57:10;;;;;;;6.85;5.50;;;;;;;;;;5030163;28;20084;-57
2022/07/04 03:59:36;;;;;;;5.93;5.05;;;;;;;;;;5032669;28;20033;-56
2022/07/04 04:02:02;;;;;;;6.60;5.60;;;;;;;;;;5029920;28;20029;-56
2022/07/04 04:07:13;;;;;;;9.85;6.43;;;;;;;;;;5029400;28;20076;-56
2022/07/04 04:09:39;;;;;;;6.45;5.00;;;;;;;;;;5033335;28;20037;-56
2022/07/04 04:12:05;;;;;;;5.55;4.88;;;;;;;;;;5028280;28;20108;-56
2022/07/04 04:14:31;;;;;;;7.35;5.68;;;;;;;;;;5031707;28;20136;-54
2022/07/04 04:16:57;;;;;;;6.45;4.43;;;;;;;;;;5030851;28;20595;-56
2022/07/04 04:19:23;;;;;;;7.65;4.35;;;;;;;;;;5030657;28;20424;-56
2022/07/04 04:21:49;;;;;;;6.65;4.60;;;;;;;;;;5030510;28;20025;-56
2022/07/04 04:24:15;;;;;;;7.25;4.10;;;;;;;;;;5027479;28;20021;-56
2022/07/04 04:26:40;;;;;;;8.52;4.68;;;;;;;;;;5028579;28;20045;-55
2022/07/04 04:29:06;;;;;;;4.65;3.95;;;;;;;;;;5027498;28;20030;-56
2022/07/04 04:31:32;;;;;;;5.88;4.03;;;;;;;;;;5028442;28;20100;-56
2022/07/04 04:33:59;;;;;;;6.65;3.50;;;;;;;;;;5032191;28;20040;-55
2022/07/04 04:36:25;;;;;;;4.07;3.25;;;;;;;;;;5031819;28;20487;-56
2022/07/04 04:38:51;;;;;;;5.20;3.72;;;;;;;;;;5032290;28;20034;-55
2022/07/04 04:41:17;;;;;;;7.03;3.40;;;;;;;;;;5032030;28;20025;-56
2022/07/04 04:43:43;;;;;;;5.93;3.42;;;;;;;;;;5031062;28;20377;-55
2022/07/04 04:46:09;;;;;;;4.20;2.83;;;;;;;;;;5031358;28;20067;-57
2022/07/04 04:48:35;;;;;;;5.18;3.25;;;;;;;;;;5029437;28;20021;-56
2022/07/04 04:51:01;;;;;;;6.18;3.10;;;;;;;;;;5031041;28;20029;-57
2022/07/04 04:53:27;;;;;;;3.45;2.90;;;;;;;;;;5030039;28;20187;-56
2022/07/04 04:55:54;;;;;;;5.65;2.75;;;;;;;;;;5031754;28;20021;-56
2022/07/04 04:58:20;;;;;;;5.43;3.00;;;;;;;;;;5028449;28;20153;-57
2022/07/04 05:00:48;;;;;;;4.07;2.55;;;;;;;;;;5027268;28;20029;-56
2022/07/04 05:03:14;;;;;;;5.15;2.58;;;;;;;;;;5031195;28;20029;-56
2022/07/04 05:05:40;;;;;;;3.72;2.58;;;;;;;;;;5032689;28;20400;-57
2022/07/04 05:08:06;;;;;;;3.95;2.45;;;;;;;;;;5030614;28;20025;-54
2022/07/04 05:10:32;;;;;;;3.13;2.00;;;;;;;;;;5030723;28;20041;-55
2022/07/04 05:12:58;;;;;;;2.65;2.20;;;;;;;;;;5029729;28;20040;-56
2022/07/04 05:15:24;;;;;;;4.03;2.30;;;;;;;;;;5035237;28;20485;-56
2022/07/04 05:17:50;;;;;;;4.18;2.33;;;;;;;;;;5031611;28;20026;-55
2022/07/04 05:20:16;;;;;;;4.40;2.70;;;;;;;;;;5028013;28;20038;-57
2022/07/04 05:22:42;;;;;;;3.78;2.22;;;;;;;;;;5026733;28;20028;-54
2022/07/04 05:25:09;;;;;;;3.78;2.05;;;;;;;;;;5030053;28;20025;-57
2022/07/04 05:27:35;;;;;;;3.80;2.60;;;;;;;;;;5029508;28;20168;-56
2022/07/04 05:30:02;;;;;;;3.65;2.47;;;;;;;;;;5031703;28;20406;-55
2022/07/04 05:32:28;;;;;;;3.42;2.30;;;;;;;;;;5035579;28;20041;-56
2022/07/04 05:34:54;;;;;;;4.68;2.17;;;;;;;;;;5028474;28;20489;-56
2022/07/04 05:37:20;;;;;;;2.95;1.83;;;;;;;;;;5028974;28;20026;-57
2022/07/04 05:39:46;;;;;;;5.10;2.25;;;;;;;;;;5029006;28;20085;-56
2022/07/04 05:42:12;;;;;;;4.63;2.35;;;;;;;;;;5030681;28;20141;-50
2022/07/04 05:44:38;;;;;;;2.65;1.83;;;;;;;;;;5030526;28;20038;-56
2022/07/04 05:47:04;;;;;;;2.50;1.45;;;;;;;;;;5029926;28;20033;-56
2022/07/04 05:49:30;;;;;;;2.60;1.38;;;;;;;;;;5030435;28;20029;-56
2022/07/04 05:51:56;;;;;;;3.13;1.48;;;;;;;;;;5029566;28;20049;-56
2022/07/04 05:54:22;;;;;;;2.63;1.13;;;;;;;;;;5030973;28;20033;-56
2022/07/04 05:56:48;;;;;;;2.72;1.40;;;;;;;;;;5031081;28;20037;-56
2022/07/04 05:59:14;;;;;;;3.92;1.30;;;;;;;;;;5030569;28;20044;-55
2022/07/04 06:01:40;;;;;;;3.17;1.50;;;;;;;;;;5026471;28;20488;-54
2022/07/04 06:04:06;;;;;;;2.03;1.33;;;;;;;;;;5030636;28;20025;-56
2022/07/04 06:06:32;;;;;;;2.17;1.27;;;;;;;;;;5029940;28;20051;-55
2022/07/04 06:08:58;;;;;;;1.27;0.90;;;;;;;;;;5030656;28;20045;-57
2022/07/04 06:11:24;;;;;;;3.25;1.23;;;;;;;;;;5030535;28;20468;-55
2022/07/04 06:13:50;;;;;;;1.95;1.13;;;;;;;;;;5027511;28;20057;-57
2022/07/04 06:16:17;;;;;;;3.03;1.05;;;;;;;;;;5027107;28;20025;-56
2022/07/04 06:18:43;;;;;;;2.00;1.00;;;;;;;;;;5029507;28;20048;-55
2022/07/04 06:21:10;;;;;;;1.45;1.08;;;;;;;;;;5030223;28;20025;-55
2022/07/04 06:23:36;;;;;;;3.53;1.13;;;;;;;;;;5025547;28;20028;-55
2022/07/04 06:26:02;;;;;;;2.03;1.20;;;;;;;;;;5027889;28;20099;-55
2022/07/04 06:28:29;;;;;;;7.93;1.27;;;;;;;;;;5026988;28;20057;-57
2022/07/04 06:30:55;;;;;;;1.35;1.08;;;;;;;;;;5028398;28;20118;-56
2022/07/04 06:33:21;;;;;;;1.58;0.70;;;;;;;;;;5028020;28;20057;-58
2022/07/04 06:35:55;;;;;;;2.67;1.08;;;;;;;;;;5029178;28;20029;-57
2022/07/04 06:38:23;;;;;;;2.92;1.15;;;;;;;;;;5026271;28;20389;-55
2022/07/04 06:40:50;;;;;;;1.45;1.20;;;;;;;;;;5024305;28;20120;-53
2022/07/04 06:43:16;;;;;;;3.90;1.25;;;;;;;;;;5029030;28;20033;-57
2022/07/04 06:45:42;;;;;;;3.47;1.25;;;;;;;;;;5030363;28;20018;-56
2022/07/04 06:48:08;;;;;;;2.03;1.42;;;;;;;;;;5028712;28;20116;-56
2022/07/04 06:50:35;;;;;;;2.85;1.60;;;;;;;;;;5026439;28;20397;-57
2022/07/04 06:53:01;;;;;;;4.28;1.10;;;;;;;;;;5026216;28;20547;-57
2022/07/04 06:55:27;;;;;;;4.72;1.55;;;;;;;;;;5027592;28;20461;-56
2022/07/04 06:57:53;;;;;;;3.10;1.77;;;;;;;;;;5025991;28;20049;-55
2022/07/04 07:00:19;;;;;;;1.67;1.38;;;;;;;;;;5027186;28;20026;-54
2022/07/04 07:02:45;;;;;;;1.95;1.23;;;;;;;;;;5027804;28;20104;-57
2022/07/04 07:05:11;;;;;;;2.15;1.30;;;;;;;;;;5021552;28;20388;-57
2022/07/04 07:07:37;;;;;;;4.35;1.00;;;;;;;;;;5026606;28;20029;-56
2022/07/04 07:10:05;;;;;;;2.80;1.30;;;;;;;;;;5027589;28;20481;-55
2022/07/04 07:12:31;;;;;;;1.67;1.17;;;;;;;;;;5026915;28;20029;-55
2022/07/04 07:14:57;;;;;;;4.70;1.40;;;;;;;;;;5024915;28;20066;-56
2022/07/04 07:17:23;;;;;;;2.47;0.90;;;;;;;;;;5029503;28;20635;-57
2022/07/04 07:19:49;;;;;;;2.03;0.70;;;;;;;;;;5030158;28;20038;-55
2022/07/04 07:22:16;;;;;;;2.92;1.10;;;;;;;;;;5035419;28;20523;-56
2022/07/04 07:24:42;;;;;;;3.65;1.35;;;;;;;;;;5030367;28;20112;-55
2022/07/04 07:27:08;;;;;;;2.72;0.70;;;;;;;;;;5029298;28;20118;-57
2022/07/04 07:29:35;;;;;;;3.00;0.90;;;;;;;;;;5029257;28;20105;-56
2022/07/04 07:32:01;;;;;;;6.50;0.93;;;;;;;;;;5028407;28;20037;-57
2022/07/04 07:34:27;;;;;;;2.70;1.02;;;;;;;;;;5026741;28;20053;-56
2022/07/04 07:36:53;;;;;;;1.20;0.75;;;;;;;;;;5032258;28;20041;-56
2022/07/04 07:39:19;;;;;;;1.45;0.55;;;;;;;;;;5030132;28;20029;-55
2022/07/04 07:41:46;;;;;;;3.17;1.10;;;;;;;;;;5028662;28;20465;-55
2022/07/04 07:44:12;;;;;;;4.60;0.90;;;;;;;;;;5029728;28;20030;-57
2022/07/04 07:46:38;;;;;;;3.78;0.75;;;;;;;;;;5029900;28;20037;-55
2022/07/04 07:49:04;;;;;;;5.70;0.80;;;;;;;;;;5020270;28;20120;-57
2022/07/04 07:51:30;;;;;;;1.10;0.60;;;;;;;;;;5034180;28;20037;-56
2022/07/04 07:53:56;;;;;;;2.42;0.90;;;;;;;;;;5032574;28;20088;-57
2022/07/04 07:56:22;;;;;;;1.75;0.60;;;;;;;;;;5033139;28;20037;-56
2022/07/04 07:58:48;;;;;;;2.58;0.50;;;;;;;;;;5028700;28;20037;-57
2022/07/04 08:01:14;;;;;;;2.22;0.60;;;;;;;;;;5026327;28;20049;-56
2022/07/04 08:06:25;;;;;;;0.77;0.50;;;;;;;;;;5030766;28;20029;-54
2022/07/04 08:08:51;;;;;;;2.83;0.60;;;;;;;;;;5031047;28;20022;-55
2022/07/04 08:11:17;;;;;;;4.40;0.60;;;;;;;;;;5033407;28;20025;-55
2022/07/04 08:13:43;;;;;;;3.25;0.80;;;;;;;;;;5031851;28;20572;-56
2022/07/04 08:16:09;;;;;;;2.83;0.63;;;;;;;;;;5030792;28;20026;-54
2022/07/04 08:18:35;;;;;;;2.55;0.77;;;;;;;;;;5031282;28;20030;-56
2022/07/04 08:21:02;;;;;;;1.95;0.63;;;;;;;;;;5032482;28;20030;-56
2022/07/04 08:23:29;;;;;;;1.33;0.50;;;;;;;;;;5032276;28;20038;-56
2022/07/04 08:25:55;;;;;;;1.52;0.50;;;;;;;;;;5038576;28;20053;-55
2022/07/04 08:28:21;;;;;;;4.47;0.80;;;;;;;;;;5029877;28;20029;-57
2022/07/04 08:30:47;;;;;;;1.80;0.70;;;;;;;;;;5031863;28;20044;-57
2022/07/04 08:33:13;;;;;;;3.03;0.82;;;;;;;;;;5012765;28;20021;-56
2022/07/04 08:35:39;;;;;;;3.10;0.80;;;;;;;;;;5045098;28;20535;-56
2022/07/04 08:38:05;;;;;;;1.55;0.52;;;;;;;;;;5045222;28;20042;-55
2022/07/04 08:40:31;;;;;;;2.88;0.80;;;;;;;;;;5040093;28;20029;-57
2022/07/04 08:42:57;;;;;;;2.67;0.60;;;;;;;;;;5035853;28;20025;-56
2022/07/04 08:45:27;;;;;;;2.08;0.60;;;;;;;;;;5032474;28;20032;-56
2022/07/04 08:48:00;;;;;;;1.80;0.70;;;;;;;;;;5033196;28;20056;-55
2022/07/04 08:50:28;;;;;;;1.50;0.70;;;;;;;;;;5033780;28;20087;-56
2022/07/04 08:52:56;;;;;;;1.38;0.43;;;;;;;;;;5032226;28;20021;-57
2022/07/04 08:58:26;;;;;;;8.77;0.95;;;;;;;;;;5031628;28;20513;-55
2022/07/04 09:00:55;;;;;;;2.50;0.80;;;;;;;;;;5030155;28;20507;-57
2022/07/04 09:03:22;;;;;;;1.75;0.50;;;;;;;;;;5036721;28;20025;-56
2022/07/04 09:05:48;;;;;;;3.30;0.50;;;;;;;;;;5040017;28;20060;-55
2022/07/04 09:08:15;;;;;;;1.30;0.50;;;;;;;;;;5040447;28;20021;-55
2022/07/04 09:10:40;;;;;;;2.67;0.60;;;;;;;;;;5031942;28;20108;-57
2022/07/04 09:13:07;;;;;;;1.67;0.65;;;;;;;;;;5037656;28;20044;-56
2022/07/04 09:15:34;;;;;;;2.20;0.70;;;;;;;;;;5039929;28;20048;-56
2022/07/04 09:18:00;;;;;;;2.42;0.80;;;;;;;;;;5042115;28;20033;-57
2022/07/04 09:20:27;;;;;;;1.75;0.30;;;;;;;;;;5038469;28;20060;-56
2022/07/04 09:22:54;;;;;;;1.48;0.50;;;;;;;;;;5034259;28;20061;-57
2022/07/04 09:25:20;;;;;;;1.45;0.60;;;;;;;;;;5038044;28;20547;-57
2022/07/04 09:27:47;;;;;;;4.88;0.80;;;;;;;;;;5020990;28;20050;-57
2022/07/04 09:30:18;;;;;;;2.33;0.50;;;;;;;;;;5016633;28;20109;-57
2022/07/04 09:32:45;;;;;;;1.00;0.60;;;;;;;;;;5003779;28;20382;-56
2022/07/04 09:35:19;;;;;;;0.73;0.40;;;;;;;;;;5018749;28;20496;-57
2022/07/04 09:37:45;;;;;;;;;;;;;;;;;;5017443;28;20030;-57
2022/07/04 09:40:11;;;;;;;1.25;0.50;;;;;;;;;;5015854;28;19917;-55
2022/07/04 09:42:38;;;;;;;1.95;0.50;;;;;;;;;;5015611;28;20477;-56
2022/07/04 09:45:08;;;;;;;3.92;0.85;;;;;;;;;;5015302;28;20582;-57
2022/07/04 09:47:34;;;;;;;3.88;0.60;;;;;;;;;;5007782;28;20029;-54
2022/07/04 09:50:00;;;;;;;1.15;0.50;;;;;;;;;;5008711;28;20543;-55
2022/07/04 09:52:27;;;;;;;4.35;0.70;;;;;;;;;;5013852;28;20034;-56
2022/07/04 09:54:57;;;;;;;2.45;0.52;;;;;;;;;;5010900;28;20028;-57
2022/07/04 09:57:23;;;;;;;2.92;0.60;;;;;;;;;;5012730;28;20026;-56
2022/07/04 09:59:49;;;;;;;1.33;0.50;;;;;;;;;;5013165;28;20030;-55
2022/07/04 10:02:15;;;;;;;1.85;0.50;;;;;;;;;;5015213;28;20029;-55
2022/07/04 10:04:43;;;;;;;1.38;0.50;;;;;;;;;;5010627;28;20021;-54
2022/07/04 10:07:09;;;;;;;1.10;0.43;;;;;;;;;;5015913;28;20026;-56
2022/07/04 10:09:35;;;;;;;0.77;0.47;;;;;;;;;;5018361;28;20041;-57
2022/07/04 10:12:01;;;;;;;3.47;0.57;;;;;;;;;;5012099;28;20438;-54
2022/07/04 10:14:27;;;;;;;1.08;0.52;;;;;;;;;;5021592;28;20477;-56
2022/07/04 10:16:53;;;;;;;0.60;0.30;;;;;;;;;;5017716;28;20097;-56
2022/07/04 10:19:20;;;;;;;1.17;0.45;;;;;;;;;;5015637;28;20041;-57
2022/07/04 10:21:47;;;;;;;2.10;0.40;;;;;;;;;;5010448;28;20097;-56
2022/07/04 10:24:13;;;;;;;1.45;0.47;;;;;;;;;;5012546;28;20084;-57
2022/07/04 10:26:39;;;;;;;1.45;0.32;;;;;;;;;;5024578;28;20036;-58
2022/07/04 10:29:05;;;;;;;4.03;0.52;;;;;;;;;;5030243;28;20835;-55
2022/07/04 10:31:32;;;;;;;1.13;0.40;;;;;;;;;;5029835;28;20377;-56
2022/07/04 10:34:03;;;;;;;4.85;0.50;;;;;;;;;;5030177;28;20033;-54
2022/07/04 10:36:30;;;;;;;3.90;0.85;;;;;;;;;;5031299;28;20072;-56
2022/07/04 10:39:00;;;;;;;2.25;0.57;;;;;;;;;;5031232;28;20039;-57
2022/07/04 10:41:26;;;;;;;1.25;0.40;;;;;;;;;;5029577;28;20469;-55
2022/07/04 10:43:53;;;;;;;3.50;0.50;;;;;;;;;;5031136;28;20037;-56
2022/07/04 10:46:23;;;;;;;0.45;0.35;;;;;;;;;;5029960;28;20072;-56
2022/07/04 10:48:50;;;;;;;1.40;0.47;;;;;;;;;;5029099;28;20017;-55
2022/07/04 10:51:16;;;;;;;1.20;0.40;;;;;;;;;;5035923;28;20646;-57
2022/07/04 10:54:00;;;;;;;0.30;0.30;;;;;;;;;;5031070;28;20026;-56
2022/07/04 10:56:26;;;;;;;1.58;0.30;;;;;;;;;;5029643;28;20034;-56
2022/07/04 10:58:52;;;;;;;2.30;0.90;;;;;;;;;;5012670;28;20022;-57
2022/07/04 11:01:18;;;;;;;1.55;0.40;;;;;;;;;;5028571;28;20108;-56
2022/07/04 11:03:52;;;;;;;0.73;0.40;;;;;;;;;;5026903;28;20017;-56
2022/07/04 11:06:30;;;;;;;0.50;0.40;;;;;;;;;;5028191;28;20045;-57
2022/07/04 11:09:15;;;;;;;1.02;0.40;;;;;;;;;;5030230;28;20021;-55
2022/07/04 11:11:57;;;;;;;1.55;0.52;;;;;;;;;;5029601;28;20040;-56
2022/07/04 11:14:43;;;;;;;3.03;0.50;;;;;;;;;;5030591;28;20068;-55
2022/07/04 11:17:12;;;;;;;0.70;0.30;;;;;;;;;;5030374;28;20026;-56
2022/07/04 11:19:38;;;;;;;2.85;0.40;;;;;;;;;;5030388;28;20064;-57
2022/07/04 11:22:05;;;;;;;1.63;0.40;;;;;;;;;;5030103;28;20448;-57
2022/07/04 11:24:32;;;;;;;1.92;0.60;;;;;;;;;;5033611;28;20372;-56
2022/07/04 11:26:58;;;;;;;3.00;0.50;;;;;;;;;;5034137;28;20525;-57
2022/07/04 11:29:24;;;;;;;1.73;0.40;;;;;;;;;;5033692;28;20130;-57
2022/07/04 11:31:51;;;;;;;2.40;0.32;;;;;;;;;;5033612;28;20492;-56
2022/07/04 11:34:18;;;;;;;2.25;0.60;;;;;;;;;;5034516;28;20040;-55
2022/07/04 11:36:45;;;;;;;2.80;0.40;;;;;;;;;;5040708;28;20030;-57
2022/07/04 11:39:12;;;;;;;0.70;0.40;;;;;;;;;;5032592;28;20076;-56
2022/07/04 11:47:21;;;;;;;1.17;0.35;;;;;;;;;;5034405;28;20064;-55
2022/07/04 11:49:55;;;;;;;2.55;0.50;;;;;;;;;;5033393;28;20029;-56
2022/07/04 11:52:21;;;;;;;;;;;;;;;;;;5013755;28;20485;-56
2022/07/04 11:54:47;;;;;;;1.00;0.38;;;;;;;;;;5032394;28;19920;-56
2022/07/04 11:57:13;;;;;;;1.65;0.43;;;;;;;;;;5028480;28;20469;-55
2022/07/04 11:59:39;;;;;;;1.00;0.40;;;;;;;;;;5032968;28;20024;-57
2022/07/04 12:02:16;;;;;;;0.77;0.30;;;;;;;;;;5032164;28;20489;-56
2022/07/04 12:04:43;;;;;;;0.93;0.25;;;;;;;;;;5034170;28;20072;-56
2022/07/04 12:07:12;;;;;;;2.53;0.30;;;;;;;;;;5031863;28;20428;-54
2022/07/04 12:09:39;;;;;;;0.35;0.30;;;;;;;;;;5033832;28;20378;-56
2022/07/04 12:12:05;;;;;;;1.50;0.32;;;;;;;;;;5031084;28;20080;-56
2022/07/04 12:14:31;;;;;;;1.55;0.40;;;;;;;;;;5030523;28;20029;-56
2022/07/04 12:17:17;;;;;;;1.10;0.50;;;;;;;;;;5033183;28;20053;-53
2022/07/04 12:19:53;;;;;;;0.95;0.30;;;;;;;;;;5030830;28;20140;-56
2022/07/04 12:22:29;;;;;;;0.38;0.25;;;;;;;;;;5031717;28;20054;-56
2022/07/04 12:24:56;;;;;;;3.40;0.47;;;;;;;;;;5031997;28;20137;-56
2022/07/04 12:27:22;;;;;;;1.80;0.40;;;;;;;;;;5029680;28;20120;-56
2022/07/04 12:29:49;;;;;;;1.52;0.30;;;;;;;;;;5029543;28;20029;-55
2022/07/04 12:32:15;;;;;;;1.42;0.40;;;;;;;;;;5031207;28;20625;-56
2022/07/04 12:34:41;;;;;;;10.90;0.65;;;;;;;;;;5031405;28;20041;-54
2022/07/04 12:37:08;;;;;;;0.80;0.30;;;;;;;;;;5032215;28;20382;-54
2022/07/04 12:39:37;;;;;;;1.30;0.40;;;;;;;;;;5027735;28;20446;-55
2022/07/04 12:42:11;;;;;;;0.65;0.30;;;;;;;;;;5031602;28;20028;-55
2022/07/04 12:44:38;;;;;;;4.28;0.40;;;;;;;;;;5031533;28;20029;-56
2022/07/04 12:47:04;;;;;;;1.75;0.45;;;;;;;;;;5030679;28;20034;-58
2022/07/04 12:49:31;;;;;;;0.95;0.52;;;;;;;;;;5030297;28;20597;-57
2022/07/04 12:52:11;;;;;;;0.80;0.20;;;;;;;;;;5029859;28;20033;-57
2022/07/04 12:54:38;;;;;;;1.27;0.30;;;;;;;;;;5031977;28;20432;-56
2022/07/04 12:57:05;;;;;;;1.38;0.40;;;;;;;;;;5032720;28;20033;-55
2022/07/04 12:59:31;;;;;;;0.82;0.20;;;;;;;;;;5027666;28;20029;-57
2022/07/04 13:01:57;;;;;;;1.55;0.40;;;;;;;;;;5031026;28;20397;-55
2022/07/04 13:04:23;;;;;;;0.68;0.17;;;;;;;;;;5030766;28;20029;-57
2022/07/04 13:06:49;;;;;;;2.20;0.43;;;;;;;;;;5032106;28;20441;-57
2022/07/04 13:09:15;;;;;;;0.43;0.10;;;;;;;;;;5031232;28;20032;-54
2022/07/04 13:14:26;;;;;;;1.95;0.55;;;;;;;;;;5036978;28;20056;-56
2022/07/04 13:16:52;;;;;;;0.60;0.40;;;;;;;;;;5036426;28;20477;-56
2022/07/04 13:19:18;;;;;;;1.63;0.32;;;;;;;;;;5032259;28;20037;-55
2022/07/04 13:21:44;;;;;;;1.23;0.25;;;;;;;;;;5032109;28;20021;-56
2022/07/04 13:24:10;;;;;;;0.70;0.40;;;;;;;;;;5031494;28;20041;-56
2022/07/04 13:26:37;;;;;;;2.88;1.00;;;;;;;;;;5028631;28;20132;-56
2022/07/04 13:29:04;;;;;;;1.27;0.30;;;;;;;;;;5027556;28;20034;-56
2022/07/04 13:31:30;;;;;;;1.20;0.20;;;;;;;;;;5033987;28;20430;-57
2022/07/04 13:33:56;;;;;;;1.65;0.32;;;;;;;;;;5032752;28;20057;-56
2022/07/04 13:36:22;;;;;;;0.50;0.20;;;;;;;;;;5032016;28;20025;-57
2022/07/04 13:38:48;;;;;;;0.22;0.10;;;;;;;;;;5032915;28;20484;-56
2022/07/04 13:41:14;;;;;;;0.47;0.20;;;;;;;;;;5030588;28;20040;-57
2022/07/04 13:43:40;;;;;;;1.00;0.30;;;;;;;;;;5013383;28;20024;-57
2022/07/04 13:46:07;;;;;;;0.98;0.20;;;;;;;;;;5028056;28;20525;-54
2022/07/04 13:48:33;;;;;;;3.03;0.40;;;;;;;;;;5039059;28;20108;-57
2022/07/04 13:50:59;;;;;;;1.48;0.20;;;;;;;;;;5031988;28;20421;-55
2022/07/04 13:53:25;;;;;;;1.38;0.22;;;;;;;;;;5031315;28;20029;-56
2022/07/04 13:55:51;;;;;;;1.05;0.47;;;;;;;;;;5026444;28;20017;-56
2022/07/04 13:58:17;;;;;;;1.23;0.22;;;;;;;;;;5030500;28;20112;-54
2022/07/04 14:00:44;;;;;;;0.50;0.20;;;;;;;;;;5030407;28;20037;-54
2022/07/04 14:03:11;;;;;;;0.90;0.15;;;;;;;;;;5028423;28;20540;-57
2022/07/04 14:05:37;;;;;;;0.47;0.20;;;;;;;;;;5032456;28;20018;-56
2022/07/04 14:08:03;;;;;;;0.35;0.20;;;;;;;;;;5030417;28;20483;-55
2022/07/04 14:10:29;;;;;;;1.38;0.25;;;;;;;;;;5029050;28;20039;-56
2022/07/04 14:12:55;;;;;;;1.70;0.20;;;;;;;;;;5028096;28;20741;-55
2022/07/04 14:15:22;;;;;;;1.35;0.28;;;;;;;;;;5029274;28;20109;-55
2022/07/04 14:17:48;;;;;;;1.05;0.25;;;;;;;;;;5027439;28;20101;-55
2022/07/04 14:20:14;;;;;;;1.80;0.43;;;;;;;;;;5020776;28;20036;-56
2022/07/04 14:22:40;;;;;;;1.67;0.17;;;;;;;;;;5029557;28;20024;-56
2022/07/04 14:25:07;;;;;;;1.67;0.30;;;;;;;;;;5029782;28;20611;-54
2022/07/04 14:27:33;;;;;;;0.43;0.17;;;;;;;;;;5030787;28;20116;-56
2022/07/04 14:29:59;;;;;;;0.52;0.20;;;;;;;;;;5030302;28;20060;-56
2022/07/04 14:32:25;;;;;;;3.85;0.40;;;;;;;;;;5020925;28;20053;-55
2022/07/04 14:34:51;;;;;;;1.33;0.50;;;;;;;;;;5031206;28;20464;-56
2022/07/04 14:37:17;;;;;;;1.67;0.30;;;;;;;;;;5031153;28;20108;-54
2022/07/04 14:39:43;;;;;;;3.00;0.70;;;;;;;;;;5029304;28;20401;-55
2022/07/04 14:42:09;;;;;;;0.60;0.20;;;;;;;;;;5030505;28;20033;-56
2022/07/04 14:44:37;;;;;;;1.30;0.30;;;;;;;;;;5031074;28;20177;-56
2022/07/04 14:47:04;;;;;;;1.95;0.52;;;;;;;;;;5031378;28;20022;-53
2022/07/04 14:49:30;;;;;;;0.63;0.30;;;;;;;;;;5030908;28;20599;-53
2022/07/04 14:51:59;;;;;;;0.65;0.30;;;;;;;;;;5027184;28;20025;-55
2022/07/04 14:54:25;;;;;;;1.70;0.32;;;;;;;;;;5031219;28;20033;-54
2022/07/04 14:56:51;;;;;;;1.35;0.30;;;;;;;;;;5025399;28;20488;-53
2022/07/04 14:59:17;;;;;;;2.22;0.40;;;;;;;;;;5028958;28;20112;-56
2022/07/04 15:01:43;;;;;;;1.63;0.30;;;;;;;;;;5029790;28;20028;-55